createdAt,value
2022-08-12T00:03:26.853Z,101712.92
2022-08-12T00:09:09.587Z,101715.06
2022-08-12T00:14:49.732Z,101711.34
2022-08-12T00:20:32.130Z,101720.83
2022-08-12T00:26:23.597Z,101721.79
2022-08-12T00:32:00.467Z,101722.00
2022-08-12T00:37:42.745Z,101719.16
2022-08-12T00:43:06.264Z,101724.27
2022-08-12T00:48:30.225Z,101719.84
2022-08-12T00:53:54.136Z,101719.36
2022-08-12T00:59:18.612Z,101718.63
2022-08-12T01:05:00.522Z,101723.64
2022-08-12T01:10:42.353Z,101731.19
2022-08-12T01:16:08.053Z,101730.56
2022-08-12T01:21:59.297Z,101736.75
2022-08-12T01:27:23.766Z,101719.90
2022-08-12T01:32:48.113Z,101722.17
2022-08-12T01:38:19.322Z,101727.36
2022-08-12T01:43:45.280Z,101727.78
2022-08-12T01:49:31.021Z,101723.23
2022-08-12T01:54:56.388Z,101724.61
2022-08-12T02:00:35.533Z,101722.25
2022-08-12T02:06:20.272Z,101722.77
2022-08-12T02:11:50.697Z,101721.39
2022-08-12T02:17:54.704Z,101725.83
2022-08-12T02:23:06.749Z,101728.53
2022-08-12T02:28:29.457Z,101722.98
2022-08-12T02:33:53.084Z,101735.41
2022-08-12T02:39:17.972Z,101730.38
2022-08-12T02:44:44.640Z,101731.10
2022-08-12T02:50:09.990Z,101727.14
2022-08-12T02:55:40.193Z,101726.02
2022-08-12T03:01:04.031Z,101717.77
2022-08-12T03:06:30.782Z,101724.81
2022-08-12T03:12:08.449Z,101716.56
2022-08-12T03:17:45.478Z,101713.81
2022-08-12T03:23:29.199Z,101705.81
2022-08-12T03:28:58.382Z,101698.31
2022-08-12T03:34:30.179Z,101695.91
2022-08-12T03:39:54.131Z,101702.73
2022-08-12T03:45:53.767Z,101713.86
2022-08-12T03:51:36.058Z,101713.73
2022-08-12T03:57:16.309Z,101715.06
2022-08-12T04:02:39.251Z,101717.69
2022-08-12T04:08:03.744Z,101709.45
2022-08-12T04:13:29.884Z,101709.11
2022-08-12T04:18:53.406Z,101716.23
2022-08-12T04:24:18.492Z,101716.34
2022-08-12T04:30:20.976Z,101729.88
2022-08-12T04:35:06.678Z,101735.66
2022-08-12T04:40:31.491Z,101742.04
2022-08-12T04:45:55.491Z,101730.20
2022-08-12T04:51:17.963Z,101739.43
2022-08-12T04:56:40.749Z,101742.73
2022-08-12T05:02:05.356Z,101734.81
2022-08-12T05:07:29.322Z,101742.27
2022-08-12T05:13:04.959Z,101740.19
2022-08-12T05:18:29.295Z,101738.14
2022-08-12T05:23:55.390Z,101740.48
2022-08-12T05:30:06.861Z,101741.47
2022-08-12T05:34:42.585Z,101741.75
2022-08-12T05:40:10.733Z,101738.28
2022-08-12T05:45:29.277Z,101734.50
2022-08-12T05:50:54.262Z,101743.73
2022-08-12T05:56:36.547Z,101733.96
2022-08-12T06:02:12.548Z,101740.53
2022-08-12T06:07:59.229Z,101727.94
2022-08-12T06:12:50.468Z,101723.06
2022-08-12T06:18:19.476Z,101718.39
2022-08-12T06:23:43.029Z,101722.93
2022-08-12T06:29:05.993Z,101726.40
2022-08-12T06:35:22.508Z,101728.63
2022-08-12T06:39:53.740Z,101720.21
2022-08-12T06:45:16.695Z,101728.34
2022-08-12T06:50:40.160Z,101713.50
2022-08-12T06:56:03.360Z,101714.66
2022-08-12T07:01:27.994Z,101716.89
2022-08-12T07:06:50.308Z,101723.68
2022-08-12T07:12:14.225Z,101727.94
2022-08-12T07:17:38.269Z,101734.14
2022-08-12T07:23:01.096Z,101739.10
2022-08-12T07:28:30.187Z,101731.16
2022-08-12T07:33:55.711Z,101729.31
2022-08-12T07:39:19.215Z,101725.17
2022-08-12T07:44:41.520Z,101731.14
2022-08-12T07:50:06.836Z,101729.30
2022-08-12T07:55:30.471Z,101722.10
2022-08-12T08:00:59.661Z,101721.05
2022-08-12T08:06:25.061Z,101724.73
2022-08-12T08:12:05.474Z,101714.61
2022-08-12T08:17:28.005Z,101720.83
2022-08-12T08:22:51.615Z,101718.81
2022-08-12T08:28:22.295Z,101715.49
2022-08-12T08:34:09.390Z,101711.33
2022-08-12T08:39:09.117Z,101709.99
2022-08-12T08:44:31.559Z,101708.51
2022-08-12T08:49:56.380Z,101701.80
2022-08-12T08:55:27.377Z,101706.29
2022-08-12T09:00:44.136Z,101697.61
2022-08-12T09:06:09.520Z,101703.36
2022-08-12T09:11:52.525Z,101702.44
2022-08-12T09:17:21.490Z,101698.35
2022-08-12T09:22:49.166Z,101687.33
2022-08-12T09:34:25.722Z,101690.78
2022-08-12T09:39:01.854Z,101687.73
2022-08-12T09:44:43.623Z,101697.20
2022-08-12T09:50:06.465Z,101683.42
2022-08-12T09:56:05.512Z,101675.71
2022-08-12T10:00:57.672Z,101682.45
2022-08-12T10:06:31.426Z,101674.94
2022-08-12T10:12:11.984Z,101672.82
2022-08-12T10:17:31.980Z,101658.53
2022-08-12T10:23:05.857Z,101667.89
2022-08-12T10:29:01.689Z,101656.66
2022-08-12T10:34:26.038Z,101650.91
2022-08-12T10:40:01.091Z,101638.64
2022-08-12T10:45:05.082Z,101632.11
2022-08-12T10:50:56.153Z,101618.97
2022-08-12T10:55:56.415Z,101621.88
2022-08-12T11:01:49.332Z,101615.94
2022-08-12T20:43:10.570Z,101411.78
2022-08-12T20:48:35.547Z,101407.59
2022-08-12T20:54:00.733Z,101411.92
2022-08-12T20:59:31.628Z,101429.69
2022-08-12T21:05:19.521Z,101423.73
2022-08-12T21:10:38.575Z,101428.50
2022-08-12T21:16:02.453Z,101431.27
2022-08-12T21:21:24.627Z,101429.57
2022-08-12T21:26:53.469Z,101436.74
2022-08-12T21:32:37.136Z,101438.99
2022-08-12T21:37:41.926Z,101437.44
2022-08-12T21:43:05.959Z,101430.09
2022-08-12T21:48:28.321Z,101426.69
2022-08-12T21:54:07.283Z,101429.79
2022-08-12T21:59:14.787Z,101435.09
2022-08-12T22:04:55.348Z,101445.40
2022-08-12T22:10:28.301Z,101450.55
2022-08-12T22:15:45.755Z,101461.33
2022-08-12T22:21:11.360Z,101461.01
2022-08-12T22:26:37.306Z,101457.06
2022-08-12T22:31:58.472Z,101452.62
2022-08-12T22:37:20.759Z,101444.23
2022-08-12T22:43:05.673Z,101440.15
2022-08-12T22:48:27.287Z,101437.91
2022-08-12T22:53:51.580Z,101443.38
2022-08-12T22:59:14.573Z,101436.53
2022-08-12T23:04:37.674Z,101430.20
2022-08-12T23:10:00.305Z,101433.44
2022-08-12T23:15:24.042Z,101413.80
2022-08-12T23:20:46.809Z,101412.59
2022-08-12T23:26:11.323Z,101416.03
2022-08-12T23:32:02.715Z,101408.84
2022-08-12T23:37:00.636Z,101408.66
2022-08-12T23:42:31.015Z,101405.07
2022-08-12T23:47:59.108Z,101408.16
2022-08-12T23:53:26.882Z,101403.00
2022-08-12T23:58:53.039Z,101403.35
